Notice: Undefined index: wuKey in /home/public/sites/www.plaatinfo.nl/weather28/wuforecast/wualmanac.php on line 27
Welkom op onze vernieuwde website. Er wordt nog verder aan gewerkt.


Bezoek ook deze websites:

Template documentation
and downloads

And another site


U vindt ons ook hier:

Weather Underground



METAR rapporten vliegvelden


Warning: A non-numeric value encountered in /home/public/sites/www.plaatinfo.nl/weather28/metar/metarDisplay.php on line 166
   
EHVK - Volkel Rnlafb, Netherlands
Afstand tot: ZW 18 km
Gewijzigd: 06-12-2021 01:09
Nevel, Bewolking  
Nevel, Bewolking  
   Wind: varieert 1.9 km/h
Wind: varieert 1.9 km/h
Temperatuur: 3°C
Dauwpunt: 3°C
Vochtigheid: 100%
Barometer: 1011 mb
Bewolking: Bewolking
Zicht: 6 km
Bewolking: Bewolking 5500 ft
EHVK 060009Z AUTO VRB01KT 6000 BR OVC055 03/03 Q1011 WHT
EDLV - Niederrhein, Germany
Afstand tot: ZO 25 km
Gewijzigd: 05-12-2021 23:50
Verouderd
Helder  
Helder  
   Wind: varieert 3.7 km/h
Wind: varieert 3.7 km/h
Temperatuur: 4°C
Dauwpunt: 3°C
Vochtigheid: 93%
Barometer: 1010 mb
Zicht: meer dan 10 km
Bewolking: Helder
EDLV 052250Z VRB02KT CAVOK 04/03 Q1010
EHDL - Deelen Rnlafb, Netherlands
Afstand tot: N 35 km
Gewijzigd: 06-12-2021 00:55
Nevel, Bewolking  
Nevel, Bewolking  
   Wind: NNO 11.1 km/h
Wind: NNO 11.1 km/h
Temperatuur: 3°C
Voelt als: 0°C
Dauwpunt: 3°C
Vochtigheid: 100%
Barometer: 1011 mb
Bewolking: Bewolking
Zicht: 4 km
Bewolking: Grotendeels bewolkt 2400 ft,
Bewolking 5400 ft
EHDL 052355Z AUTO 03006KT 350V050 4200 R20/2700N BR BKN024 OVC054 03/03 Q1011 GRN
EHEH - Eindhoven Rnlafb, Netherlands
Afstand tot: ZW 48 km
Gewijzigd: 06-12-2021 01:04
Mist, Bewolking  
Mist, Bewolking  
   Wind: varieert 3.7 km/h
Wind: varieert 3.7 km/h
Temperatuur: 2°C
Dauwpunt: 1°C
Vochtigheid: 93%
Barometer: 1011 mb
Bewolking: Bewolking
Zicht: 0 km
Bewolking: Licht bewolkt 1400 ft,
Bewolking 5900 ft
EHEH 060004Z AUTO VRB02KT 0400 FG FEW014 OVC059 02/01 Q1011 RED
EHGR - Gilze-Rijen Rnla, Netherlands
Afstand tot: WZW 70 km
Gewijzigd: 06-12-2021 01:00
Nevel, Bewolking  
Nevel, Bewolking  
   Wind: NNO 7.4 km/h
Wind: NNO 7.4 km/h
Temperatuur: 2°C
Voelt als: 0°C
Dauwpunt: 2°C
Vochtigheid: 100%
Barometer: 1011 mb
Bewolking: Bewolking
Zicht: 5 km
Bewolking: Grotendeels bewolkt 2300 ft,
Grotendeels bewolkt 2800 ft,
Bewolking 3200 ft
EHGR 060000Z AUTO 02004KT 350V060 5000 BR BKN023 BKN028 OVC032 02/02 Q1011 WHT
EBBL - Kleine-Brogel(Ba, Belgium
Afstand tot: ZZW 71 km
Gewijzigd: 06-12-2021 00:55
Mist, Bewolking  
Mist, Bewolking  
   Wind: varieert 3.7 km/h
Wind: varieert 3.7 km/h
Temperatuur: -1°C
Dauwpunt: -1°C
Vochtigheid: 100%
Barometer: 1011 mb
Bewolking: Bewolking
Zicht: 0 km
Bewolking: Bewolking 200 ft
EBBL 052355Z AUTO VRB02KT 0100 FG OVC002/// M01/M01 Q1011 RED

Script ontwikkeld door  Saratoga-weather.org Aangepast voor de template door  Weerstation Leuven

Apparatuur in gebruik:

Weerstation
Davis VP Vue

Weerprogramma
Meteobridge

Weercomputer
MeteoBridge Red +

Webleverancier
mijn Domein

Davis VP Vue

Meteobridge

MeteoBridge Red +

mijn Domein